sensor_id;sensor_type;location;lat;lon;timestamp;P1;durP1;ratioP1;P2;durP2;ratioP2
3189;SDS011;1606;51.946;10.558;2023-08-06T00:00:25;6.87;;;2.63;;
3189;SDS011;1606;51.946;10.558;2023-08-06T00:02:53;6.33;;;2.60;;
3189;SDS011;1606;51.946;10.558;2023-08-06T00:05:22;6.57;;;2.47;;
3189;SDS011;1606;51.946;10.558;2023-08-06T00:07:49;6.73;;;2.53;;
3189;SDS011;1606;51.946;10.558;2023-08-06T00:10:17;7.40;;;3.00;;
3189;SDS011;1606;51.946;10.558;2023-08-06T00:12:45;10.83;;;2.60;;
3189;SDS011;1606;51.946;10.558;2023-08-06T00:15:15;7.10;;;2.70;;
3189;SDS011;1606;51.946;10.558;2023-08-06T00:17:43;7.50;;;2.67;;
3189;SDS011;1606;51.946;10.558;2023-08-06T00:20:11;8.90;;;2.80;;
3189;SDS011;1606;51.946;10.558;2023-08-06T00:22:39;7.43;;;2.87;;
3189;SDS011;1606;51.946;10.558;2023-08-06T00:25:08;6.60;;;2.53;;
3189;SDS011;1606;51.946;10.558;2023-08-06T00:27:37;8.90;;;2.70;;
3189;SDS011;1606;51.946;10.558;2023-08-06T00:30:05;8.30;;;3.07;;
3189;SDS011;1606;51.946;10.558;2023-08-06T00:32:35;8.53;;;3.00;;
3189;SDS011;1606;51.946;10.558;2023-08-06T00:35:03;9.70;;;3.73;;
3189;SDS011;1606;51.946;10.558;2023-08-06T00:37:32;6.73;;;2.57;;
3189;SDS011;1606;51.946;10.558;2023-08-06T00:40:00;7.57;;;2.60;;
3189;SDS011;1606;51.946;10.558;2023-08-06T00:42:27;10.93;;;3.40;;
3189;SDS011;1606;51.946;10.558;2023-08-06T00:44:55;6.43;;;2.53;;
3189;SDS011;1606;51.946;10.558;2023-08-06T00:47:23;7.53;;;2.20;;
3189;SDS011;1606;51.946;10.558;2023-08-06T00:49:53;7.70;;;3.03;;
3189;SDS011;1606;51.946;10.558;2023-08-06T00:52:21;7.30;;;2.97;;
3189;SDS011;1606;51.946;10.558;2023-08-06T00:54:49;7.20;;;2.90;;
3189;SDS011;1606;51.946;10.558;2023-08-06T00:57:17;7.57;;;2.27;;
3189;SDS011;1606;51.946;10.558;2023-08-06T00:59:47;7.20;;;2.87;;
3189;SDS011;1606;51.946;10.558;2023-08-06T01:02:15;8.80;;;3.40;;
3189;SDS011;1606;51.946;10.558;2023-08-06T01:04:43;9.57;;;3.00;;
3189;SDS011;1606;51.946;10.558;2023-08-06T01:07:14;8.40;;;2.40;;
3189;SDS011;1606;51.946;10.558;2023-08-06T01:09:50;6.97;;;2.90;;
3189;SDS011;1606;51.946;10.558;2023-08-06T01:12:25;7.20;;;2.90;;
3189;SDS011;1606;51.946;10.558;2023-08-06T01:15:04;10.50;;;2.60;;
3189;SDS011;1606;51.946;10.558;2023-08-06T01:17:38;11.87;;;3.07;;
3189;SDS011;1606;51.946;10.558;2023-08-06T01:20:08;7.30;;;2.80;;
3189;SDS011;1606;51.946;10.558;2023-08-06T01:22:38;7.20;;;2.83;;
3189;SDS011;1606;51.946;10.558;2023-08-06T01:25:06;9.00;;;2.67;;
3189;SDS011;1606;51.946;10.558;2023-08-06T01:27:37;7.60;;;2.50;;
3189;SDS011;1606;51.946;10.558;2023-08-06T01:30:11;7.27;;;2.77;;
3189;SDS011;1606;51.946;10.558;2023-08-06T01:32:44;7.97;;;2.97;;
3189;SDS011;1606;51.946;10.558;2023-08-06T01:35:14;7.50;;;3.03;;
3189;SDS011;1606;51.946;10.558;2023-08-06T01:37:44;7.80;;;3.00;;
3189;SDS011;1606;51.946;10.558;2023-08-06T01:40:13;9.67;;;2.70;;
3189;SDS011;1606;51.946;10.558;2023-08-06T01:42:41;6.33;;;2.47;;
3189;SDS011;1606;51.946;10.558;2023-08-06T01:45:09;11.03;;;2.97;;
3189;SDS011;1606;51.946;10.558;2023-08-06T01:47:38;7.53;;;2.93;;
3189;SDS011;1606;51.946;10.558;2023-08-06T01:50:06;9.27;;;2.53;;
3189;SDS011;1606;51.946;10.558;2023-08-06T01:52:34;8.13;;;2.77;;
3189;SDS011;1606;51.946;10.558;2023-08-06T01:55:03;7.00;;;2.87;;
3189;SDS011;1606;51.946;10.558;2023-08-06T01:57:31;7.80;;;3.00;;
3189;SDS011;1606;51.946;10.558;2023-08-06T02:00:00;8.43;;;2.60;;
3189;SDS011;1606;51.946;10.558;2023-08-06T02:02:28;6.80;;;2.53;;
3189;SDS011;1606;51.946;10.558;2023-08-06T02:04:56;6.80;;;2.70;;
3189;SDS011;1606;51.946;10.558;2023-08-06T02:07:25;8.20;;;2.37;;
3189;SDS011;1606;51.946;10.558;2023-08-06T02:09:53;7.93;;;2.50;;
3189;SDS011;1606;51.946;10.558;2023-08-06T02:12:22;7.43;;;2.80;;
3189;SDS011;1606;51.946;10.558;2023-08-06T02:14:50;7.20;;;2.73;;
3189;SDS011;1606;51.946;10.558;2023-08-06T02:17:18;10.40;;;2.90;;
3189;SDS011;1606;51.946;10.558;2023-08-06T02:19:46;8.03;;;2.73;;
3189;SDS011;1606;51.946;10.558;2023-08-06T02:22:14;6.60;;;2.60;;
3189;SDS011;1606;51.946;10.558;2023-08-06T02:24:42;9.33;;;2.70;;
3189;SDS011;1606;51.946;10.558;2023-08-06T02:27:10;8.33;;;2.90;;
3189;SDS011;1606;51.946;10.558;2023-08-06T02:29:40;8.90;;;3.03;;
3189;SDS011;1606;51.946;10.558;2023-08-06T02:32:08;8.53;;;2.80;;
3189;SDS011;1606;51.946;10.558;2023-08-06T02:34:36;8.43;;;3.00;;
3189;SDS011;1606;51.946;10.558;2023-08-06T02:37:04;6.70;;;2.63;;
3189;SDS011;1606;51.946;10.558;2023-08-06T02:39:32;12.63;;;3.10;;
3189;SDS011;1606;51.946;10.558;2023-08-06T02:42:01;10.93;;;3.30;;
3189;SDS011;1606;51.946;10.558;2023-08-06T02:44:30;10.40;;;3.13;;
3189;SDS011;1606;51.946;10.558;2023-08-06T02:46:59;9.23;;;3.60;;
3189;SDS011;1606;51.946;10.558;2023-08-06T02:49:27;7.57;;;3.03;;
3189;SDS011;1606;51.946;10.558;2023-08-06T02:51:55;8.13;;;3.33;;
3189;SDS011;1606;51.946;10.558;2023-08-06T02:54:23;8.73;;;3.00;;
3189;SDS011;1606;51.946;10.558;2023-08-06T02:56:51;7.10;;;2.97;;
3189;SDS011;1606;51.946;10.558;2023-08-06T02:59:18;8.93;;;2.60;;
3189;SDS011;1606;51.946;10.558;2023-08-06T03:01:47;12.10;;;3.27;;
3189;SDS011;1606;51.946;10.558;2023-08-06T03:04:16;10.00;;;3.27;;
3189;SDS011;1606;51.946;10.558;2023-08-06T03:06:44;7.70;;;3.07;;
3189;SDS011;1606;51.946;10.558;2023-08-06T03:09:13;6.90;;;3.10;;
3189;SDS011;1606;51.946;10.558;2023-08-06T03:11:40;11.80;;;2.97;;
3189;SDS011;1606;51.946;10.558;2023-08-06T03:14:08;14.33;;;3.47;;
3189;SDS011;1606;51.946;10.558;2023-08-06T03:16:36;6.37;;;2.63;;
3189;SDS011;1606;51.946;10.558;2023-08-06T03:19:05;9.90;;;3.30;;
3189;SDS011;1606;51.946;10.558;2023-08-06T03:21:34;7.83;;;3.00;;
3189;SDS011;1606;51.946;10.558;2023-08-06T03:24:02;7.67;;;3.10;;
3189;SDS011;1606;51.946;10.558;2023-08-06T03:26:30;9.20;;;3.27;;
3189;SDS011;1606;51.946;10.558;2023-08-06T03:29:00;10.70;;;3.27;;
3189;SDS011;1606;51.946;10.558;2023-08-06T03:31:28;9.90;;;3.63;;
3189;SDS011;1606;51.946;10.558;2023-08-06T03:33:56;9.73;;;3.23;;
3189;SDS011;1606;51.946;10.558;2023-08-06T03:36:24;8.97;;;4.00;;
3189;SDS011;1606;51.946;10.558;2023-08-06T03:38:53;8.23;;;3.00;;
3189;SDS011;1606;51.946;10.558;2023-08-06T03:41:21;8.07;;;3.07;;
3189;SDS011;1606;51.946;10.558;2023-08-06T03:43:49;7.80;;;2.57;;
3189;SDS011;1606;51.946;10.558;2023-08-06T03:46:17;8.63;;;2.80;;
3189;SDS011;1606;51.946;10.558;2023-08-06T03:48:45;7.93;;;3.17;;
3189;SDS011;1606;51.946;10.558;2023-08-06T03:51:13;8.40;;;3.87;;
3189;SDS011;1606;51.946;10.558;2023-08-06T03:53:41;7.90;;;3.00;;
3189;SDS011;1606;51.946;10.558;2023-08-06T03:56:10;9.60;;;3.27;;
3189;SDS011;1606;51.946;10.558;2023-08-06T03:58:38;10.43;;;3.73;;
3189;SDS011;1606;51.946;10.558;2023-08-06T04:01:06;9.03;;;3.33;;
3189;SDS011;1606;51.946;10.558;2023-08-06T04:03:34;16.93;;;3.70;;
3189;SDS011;1606;51.946;10.558;2023-08-06T04:06:02;9.40;;;3.20;;
3189;SDS011;1606;51.946;10.558;2023-08-06T04:08:30;9.30;;;3.20;;
3189;SDS011;1606;51.946;10.558;2023-08-06T04:10:58;9.10;;;3.10;;
3189;SDS011;1606;51.946;10.558;2023-08-06T04:13:27;8.00;;;2.93;;
3189;SDS011;1606;51.946;10.558;2023-08-06T04:15:55;7.03;;;2.80;;
3189;SDS011;1606;51.946;10.558;2023-08-06T04:18:28;8.73;;;3.23;;
3189;SDS011;1606;51.946;10.558;2023-08-06T04:20:56;8.70;;;3.33;;
3189;SDS011;1606;51.946;10.558;2023-08-06T04:23:24;9.03;;;3.20;;
3189;SDS011;1606;51.946;10.558;2023-08-06T04:25:52;8.20;;;3.17;;
3189;SDS011;1606;51.946;10.558;2023-08-06T04:28:23;8.40;;;3.60;;
3189;SDS011;1606;51.946;10.558;2023-08-06T04:30:52;7.50;;;3.73;;
3189;SDS011;1606;51.946;10.558;2023-08-06T04:33:20;6.90;;;2.87;;
3189;SDS011;1606;51.946;10.558;2023-08-06T04:35:53;8.07;;;3.70;;
3189;SDS011;1606;51.946;10.558;2023-08-06T04:38:23;8.43;;;3.40;;
3189;SDS011;1606;51.946;10.558;2023-08-06T04:40:51;8.63;;;2.83;;
3189;SDS011;1606;51.946;10.558;2023-08-06T04:43:19;9.87;;;3.50;;
3189;SDS011;1606;51.946;10.558;2023-08-06T04:45:47;8.50;;;3.40;;
3189;SDS011;1606;51.946;10.558;2023-08-06T04:48:17;9.30;;;3.20;;
3189;SDS011;1606;51.946;10.558;2023-08-06T04:50:45;11.50;;;3.60;;
3189;SDS011;1606;51.946;10.558;2023-08-06T04:53:14;8.87;;;3.23;;
3189;SDS011;1606;51.946;10.558;2023-08-06T04:55:42;7.40;;;3.13;;
3189;SDS011;1606;51.946;10.558;2023-08-06T04:58:10;8.37;;;3.20;;
3189;SDS011;1606;51.946;10.558;2023-08-06T05:00:39;7.90;;;3.23;;
3189;SDS011;1606;51.946;10.558;2023-08-06T05:03:07;8.47;;;3.03;;
3189;SDS011;1606;51.946;10.558;2023-08-06T05:05:36;10.43;;;3.50;;
3189;SDS011;1606;51.946;10.558;2023-08-06T05:08:06;14.73;;;3.77;;
3189;SDS011;1606;51.946;10.558;2023-08-06T05:10:34;8.57;;;3.33;;
3189;SDS011;1606;51.946;10.558;2023-08-06T05:13:03;8.07;;;3.60;;
3189;SDS011;1606;51.946;10.558;2023-08-06T05:15:31;8.20;;;3.07;;
3189;SDS011;1606;51.946;10.558;2023-08-06T05:17:59;10.17;;;3.57;;
3189;SDS011;1606;51.946;10.558;2023-08-06T05:20:27;9.00;;;3.47;;
3189;SDS011;1606;51.946;10.558;2023-08-06T05:22:56;7.70;;;3.60;;
3189;SDS011;1606;51.946;10.558;2023-08-06T05:25:24;10.20;;;3.37;;
3189;SDS011;1606;51.946;10.558;2023-08-06T05:27:52;9.57;;;3.50;;
3189;SDS011;1606;51.946;10.558;2023-08-06T05:30:20;9.30;;;3.73;;
3189;SDS011;1606;51.946;10.558;2023-08-06T05:32:48;9.13;;;2.60;;
3189;SDS011;1606;51.946;10.558;2023-08-06T05:35:16;18.40;;;4.10;;
3189;SDS011;1606;51.946;10.558;2023-08-06T05:37:43;14.50;;;4.10;;
3189;SDS011;1606;51.946;10.558;2023-08-06T05:40:13;11.80;;;3.73;;
3189;SDS011;1606;51.946;10.558;2023-08-06T05:42:41;7.60;;;3.17;;
3189;SDS011;1606;51.946;10.558;2023-08-06T05:45:09;8.73;;;3.80;;
3189;SDS011;1606;51.946;10.558;2023-08-06T05:47:37;8.40;;;3.20;;
3189;SDS011;1606;51.946;10.558;2023-08-06T05:50:06;7.83;;;3.23;;
3189;SDS011;1606;51.946;10.558;2023-08-06T05:52:35;8.27;;;2.73;;
3189;SDS011;1606;51.946;10.558;2023-08-06T05:55:03;7.53;;;3.33;;
3189;SDS011;1606;51.946;10.558;2023-08-06T05:57:32;11.40;;;3.70;;
3189;SDS011;1606;51.946;10.558;2023-08-06T06:00:00;13.10;;;3.30;;
3189;SDS011;1606;51.946;10.558;2023-08-06T06:02:29;7.57;;;3.40;;
3189;SDS011;1606;51.946;10.558;2023-08-06T06:04:57;8.97;;;3.10;;
3189;SDS011;1606;51.946;10.558;2023-08-06T06:07:24;9.77;;;3.53;;
3189;SDS011;1606;51.946;10.558;2023-08-06T06:09:52;6.90;;;3.00;;
3189;SDS011;1606;51.946;10.558;2023-08-06T06:12:20;8.17;;;3.00;;
3189;SDS011;1606;51.946;10.558;2023-08-06T06:14:50;6.93;;;3.27;;
3189;SDS011;1606;51.946;10.558;2023-08-06T06:17:18;9.03;;;3.53;;
3189;SDS011;1606;51.946;10.558;2023-08-06T06:19:46;7.83;;;3.07;;
3189;SDS011;1606;51.946;10.558;2023-08-06T06:22:14;8.20;;;2.80;;
3189;SDS011;1606;51.946;10.558;2023-08-06T06:24:42;7.30;;;3.00;;
3189;SDS011;1606;51.946;10.558;2023-08-06T06:27:10;8.73;;;3.20;;
3189;SDS011;1606;51.946;10.558;2023-08-06T06:29:38;7.90;;;3.17;;
3189;SDS011;1606;51.946;10.558;2023-08-06T06:32:08;9.20;;;3.23;;
3189;SDS011;1606;51.946;10.558;2023-08-06T06:34:35;7.50;;;3.20;;
3189;SDS011;1606;51.946;10.558;2023-08-06T06:37:04;9.30;;;3.20;;
3189;SDS011;1606;51.946;10.558;2023-08-06T06:39:32;7.10;;;2.90;;
3189;SDS011;1606;51.946;10.558;2023-08-06T06:42:00;11.20;;;3.57;;
3189;SDS011;1606;51.946;10.558;2023-08-06T06:44:28;7.47;;;2.80;;
3189;SDS011;1606;51.946;10.558;2023-08-06T06:46:55;10.13;;;3.07;;
3189;SDS011;1606;51.946;10.558;2023-08-06T06:49:25;7.93;;;3.00;;
3189;SDS011;1606;51.946;10.558;2023-08-06T06:51:53;10.07;;;3.23;;
3189;SDS011;1606;51.946;10.558;2023-08-06T06:54:21;7.20;;;2.90;;
3189;SDS011;1606;51.946;10.558;2023-08-06T06:56:49;7.43;;;3.10;;
3189;SDS011;1606;51.946;10.558;2023-08-06T06:59:17;9.03;;;3.00;;
3189;SDS011;1606;51.946;10.558;2023-08-06T07:01:45;6.63;;;2.93;;
3189;SDS011;1606;51.946;10.558;2023-08-06T07:04:12;7.90;;;3.13;;
3189;SDS011;1606;51.946;10.558;2023-08-06T07:06:42;9.00;;;2.90;;
3189;SDS011;1606;51.946;10.558;2023-08-06T07:09:09;10.40;;;3.40;;
3189;SDS011;1606;51.946;10.558;2023-08-06T07:11:37;14.57;;;3.23;;
3189;SDS011;1606;51.946;10.558;2023-08-06T07:14:05;9.63;;;3.30;;
3189;SDS011;1606;51.946;10.558;2023-08-06T07:16:35;6.40;;;2.60;;
3189;SDS011;1606;51.946;10.558;2023-08-06T07:19:03;8.90;;;3.23;;
3189;SDS011;1606;51.946;10.558;2023-08-06T07:21:31;10.60;;;2.90;;
3189;SDS011;1606;51.946;10.558;2023-08-06T07:24:01;7.30;;;2.80;;
3189;SDS011;1606;51.946;10.558;2023-08-06T07:26:29;7.23;;;2.33;;
3189;SDS011;1606;51.946;10.558;2023-08-06T07:28:57;6.80;;;2.63;;
3189;SDS011;1606;51.946;10.558;2023-08-06T07:31:24;6.70;;;2.47;;
3189;SDS011;1606;51.946;10.558;2023-08-06T07:33:52;10.47;;;2.90;;
3189;SDS011;1606;51.946;10.558;2023-08-06T07:36:20;6.60;;;2.47;;
3189;SDS011;1606;51.946;10.558;2023-08-06T07:38:48;11.10;;;2.60;;
3189;SDS011;1606;51.946;10.558;2023-08-06T07:41:23;6.13;;;2.30;;
3189;SDS011;1606;51.946;10.558;2023-08-06T07:43:51;6.77;;;2.57;;
3189;SDS011;1606;51.946;10.558;2023-08-06T07:46:19;8.40;;;2.13;;
3189;SDS011;1606;51.946;10.558;2023-08-06T07:48:47;6.00;;;2.20;;
3189;SDS011;1606;51.946;10.558;2023-08-06T07:51:14;7.07;;;1.98;;
3189;SDS011;1606;51.946;10.558;2023-08-06T07:53:42;5.90;;;2.00;;
3189;SDS011;1606;51.946;10.558;2023-08-06T07:56:10;6.67;;;2.27;;
3189;SDS011;1606;51.946;10.558;2023-08-06T07:58:39;5.70;;;2.03;;
3189;SDS011;1606;51.946;10.558;2023-08-06T08:01:07;5.67;;;2.20;;
3189;SDS011;1606;51.946;10.558;2023-08-06T08:03:35;5.83;;;2.00;;
3189;SDS011;1606;51.946;10.558;2023-08-06T08:06:03;6.93;;;2.03;;
3189;SDS011;1606;51.946;10.558;2023-08-06T08:08:31;12.03;;;1.83;;
3189;SDS011;1606;51.946;10.558;2023-08-06T08:10:59;8.07;;;2.10;;
3189;SDS011;1606;51.946;10.558;2023-08-06T08:13:27;11.07;;;2.20;;
3189;SDS011;1606;51.946;10.558;2023-08-06T08:15:57;6.60;;;2.10;;
3189;SDS011;1606;51.946;10.558;2023-08-06T08:18:26;5.43;;;1.60;;
3189;SDS011;1606;51.946;10.558;2023-08-06T08:20:53;6.80;;;2.10;;
3189;SDS011;1606;51.946;10.558;2023-08-06T08:23:21;5.57;;;1.63;;
3189;SDS011;1606;51.946;10.558;2023-08-06T08:25:49;7.27;;;1.90;;
3189;SDS011;1606;51.946;10.558;2023-08-06T08:28:17;5.53;;;1.37;;
3189;SDS011;1606;51.946;10.558;2023-08-06T08:30:45;5.07;;;1.53;;
3189;SDS011;1606;51.946;10.558;2023-08-06T08:33:14;6.20;;;1.60;;
3189;SDS011;1606;51.946;10.558;2023-08-06T08:35:42;6.00;;;2.00;;
3189;SDS011;1606;51.946;10.558;2023-08-06T08:38:12;5.50;;;1.80;;
3189;SDS011;1606;51.946;10.558;2023-08-06T08:40:41;5.80;;;1.50;;
3189;SDS011;1606;51.946;10.558;2023-08-06T08:43:14;5.87;;;1.70;;
3189;SDS011;1606;51.946;10.558;2023-08-06T08:45:43;8.43;;;1.90;;
3189;SDS011;1606;51.946;10.558;2023-08-06T08:48:17;6.33;;;1.60;;
3189;SDS011;1606;51.946;10.558;2023-08-06T08:50:46;5.53;;;1.70;;
3189;SDS011;1606;51.946;10.558;2023-08-06T08:53:16;5.47;;;1.60;;
3189;SDS011;1606;51.946;10.558;2023-08-06T08:55:46;5.43;;;1.67;;
3189;SDS011;1606;51.946;10.558;2023-08-06T08:58:15;5.30;;;1.30;;
3189;SDS011;1606;51.946;10.558;2023-08-06T09:00:45;5.43;;;1.67;;
3189;SDS011;1606;51.946;10.558;2023-08-06T09:03:14;5.83;;;1.70;;
3189;SDS011;1606;51.946;10.558;2023-08-06T09:05:45;4.83;;;1.30;;
3189;SDS011;1606;51.946;10.558;2023-08-06T09:08:17;5.87;;;1.40;;
3189;SDS011;1606;51.946;10.558;2023-08-06T09:10:48;5.60;;;1.60;;
3189;SDS011;1606;51.946;10.558;2023-08-06T09:13:17;5.30;;;1.70;;
3189;SDS011;1606;51.946;10.558;2023-08-06T09:15:46;5.33;;;1.90;;
3189;SDS011;1606;51.946;10.558;2023-08-06T09:18:24;5.53;;;1.40;;
3189;SDS011;1606;51.946;10.558;2023-08-06T09:20:55;5.03;;;1.30;;
3189;SDS011;1606;51.946;10.558;2023-08-06T09:23:27;5.20;;;1.47;;
3189;SDS011;1606;51.946;10.558;2023-08-06T09:25:56;6.40;;;1.63;;
3189;SDS011;1606;51.946;10.558;2023-08-06T09:28:24;5.60;;;1.53;;
3189;SDS011;1606;51.946;10.558;2023-08-06T09:31:03;5.27;;;1.47;;
3189;SDS011;1606;51.946;10.558;2023-08-06T09:33:31;5.73;;;1.57;;
3189;SDS011;1606;51.946;10.558;2023-08-06T09:36:03;5.40;;;1.90;;
3189;SDS011;1606;51.946;10.558;2023-08-06T09:38:37;6.77;;;2.33;;
3189;SDS011;1606;51.946;10.558;2023-08-06T09:41:06;6.27;;;1.70;;
3189;SDS011;1606;51.946;10.558;2023-08-06T09:43:40;6.20;;;2.10;;
3189;SDS011;1606;51.946;10.558;2023-08-06T09:46:12;5.50;;;1.83;;
3189;SDS011;1606;51.946;10.558;2023-08-06T09:48:44;5.20;;;1.60;;
3189;SDS011;1606;51.946;10.558;2023-08-06T09:51:14;5.80;;;1.80;;
3189;SDS011;1606;51.946;10.558;2023-08-06T09:53:42;5.43;;;1.83;;
3189;SDS011;1606;51.946;10.558;2023-08-06T09:56:11;5.20;;;1.60;;
3189;SDS011;1606;51.946;10.558;2023-08-06T09:58:41;5.90;;;2.33;;
3189;SDS011;1606;51.946;10.558;2023-08-06T10:01:09;5.47;;;1.53;;
3189;SDS011;1606;51.946;10.558;2023-08-06T10:03:39;5.40;;;1.93;;
3189;SDS011;1606;51.946;10.558;2023-08-06T10:06:07;6.00;;;2.17;;
3189;SDS011;1606;51.946;10.558;2023-08-06T10:08:37;5.50;;;1.80;;
3189;SDS011;1606;51.946;10.558;2023-08-06T10:11:07;5.40;;;1.80;;
3189;SDS011;1606;51.946;10.558;2023-08-06T10:13:36;5.50;;;1.80;;
3189;SDS011;1606;51.946;10.558;2023-08-06T10:16:06;5.50;;;1.70;;
3189;SDS011;1606;51.946;10.558;2023-08-06T10:18:35;5.23;;;1.70;;
3189;SDS011;1606;51.946;10.558;2023-08-06T10:21:07;5.43;;;1.87;;
3189;SDS011;1606;51.946;10.558;2023-08-06T10:23:35;5.27;;;1.60;;
3189;SDS011;1606;51.946;10.558;2023-08-06T10:26:07;5.10;;;1.73;;
3189;SDS011;1606;51.946;10.558;2023-08-06T10:28:36;6.17;;;2.20;;
3189;SDS011;1606;51.946;10.558;2023-08-06T10:31:05;6.17;;;1.97;;
3189;SDS011;1606;51.946;10.558;2023-08-06T10:33:42;5.90;;;2.20;;
3189;SDS011;1606;51.946;10.558;2023-08-06T10:36:11;5.17;;;1.83;;
3189;SDS011;1606;51.946;10.558;2023-08-06T10:38:45;7.00;;;2.00;;
3189;SDS011;1606;51.946;10.558;2023-08-06T10:41:21;5.43;;;1.87;;
3189;SDS011;1606;51.946;10.558;2023-08-06T10:43:51;6.23;;;1.67;;
3189;SDS011;1606;51.946;10.558;2023-08-06T10:46:23;5.50;;;1.80;;
3189;SDS011;1606;51.946;10.558;2023-08-06T10:48:53;5.50;;;1.80;;
3189;SDS011;1606;51.946;10.558;2023-08-06T10:51:21;5.40;;;1.87;;
3189;SDS011;1606;51.946;10.558;2023-08-06T10:53:51;5.80;;;1.73;;
3189;SDS011;1606;51.946;10.558;2023-08-06T10:56:19;5.90;;;1.93;;
3189;SDS011;1606;51.946;10.558;2023-08-06T10:58:49;5.50;;;1.60;;
3189;SDS011;1606;51.946;10.558;2023-08-06T11:01:19;5.50;;;2.07;;
3189;SDS011;1606;51.946;10.558;2023-08-06T11:03:48;5.70;;;2.20;;
3189;SDS011;1606;51.946;10.558;2023-08-06T11:06:19;5.67;;;1.70;;
3189;SDS011;1606;51.946;10.558;2023-08-06T11:08:49;5.63;;;1.93;;
3189;SDS011;1606;51.946;10.558;2023-08-06T11:11:19;6.83;;;1.83;;
3189;SDS011;1606;51.946;10.558;2023-08-06T11:13:49;7.40;;;2.30;;
3189;SDS011;1606;51.946;10.558;2023-08-06T11:16:18;11.30;;;2.67;;
3189;SDS011;1606;51.946;10.558;2023-08-06T11:18:46;8.93;;;3.00;;
3189;SDS011;1606;51.946;10.558;2023-08-06T11:21:14;8.97;;;3.07;;
3189;SDS011;1606;51.946;10.558;2023-08-06T11:23:46;7.83;;;2.97;;
3189;SDS011;1606;51.946;10.558;2023-08-06T11:26:19;6.43;;;2.57;;
3189;SDS011;1606;51.946;10.558;2023-08-06T11:28:47;8.53;;;2.70;;
3189;SDS011;1606;51.946;10.558;2023-08-06T11:31:20;8.13;;;2.90;;
3189;SDS011;1606;51.946;10.558;2023-08-06T11:33:49;6.90;;;3.03;;
3189;SDS011;1606;51.946;10.558;2023-08-06T11:36:27;6.10;;;2.40;;
3189;SDS011;1606;51.946;10.558;2023-08-06T11:38:56;6.40;;;2.50;;
3189;SDS011;1606;51.946;10.558;2023-08-06T11:41:25;8.00;;;2.47;;
3189;SDS011;1606;51.946;10.558;2023-08-06T11:43:55;6.17;;;2.60;;
3189;SDS011;1606;51.946;10.558;2023-08-06T11:46:23;6.20;;;2.23;;
3189;SDS011;1606;51.946;10.558;2023-08-06T11:48:51;6.67;;;2.43;;
3189;SDS011;1606;51.946;10.558;2023-08-06T11:51:22;6.50;;;2.10;;
3189;SDS011;1606;51.946;10.558;2023-08-06T11:53:50;8.20;;;2.47;;
3189;SDS011;1606;51.946;10.558;2023-08-06T11:56:18;6.40;;;2.63;;
3189;SDS011;1606;51.946;10.558;2023-08-06T11:58:48;5.90;;;2.47;;
3189;SDS011;1606;51.946;10.558;2023-08-06T12:01:16;6.07;;;2.27;;
3189;SDS011;1606;51.946;10.558;2023-08-06T12:03:44;5.60;;;2.20;;
3189;SDS011;1606;51.946;10.558;2023-08-06T12:06:12;6.50;;;2.10;;
3189;SDS011;1606;51.946;10.558;2023-08-06T12:08:40;5.40;;;1.80;;
3189;SDS011;1606;51.946;10.558;2023-08-06T12:11:08;6.47;;;2.40;;
3189;SDS011;1606;51.946;10.558;2023-08-06T12:13:36;5.97;;;1.90;;
3189;SDS011;1606;51.946;10.558;2023-08-06T12:16:06;6.40;;;2.83;;
3189;SDS011;1606;51.946;10.558;2023-08-06T12:18:34;6.00;;;2.40;;
3189;SDS011;1606;51.946;10.558;2023-08-06T12:21:02;7.10;;;2.50;;
3189;SDS011;1606;51.946;10.558;2023-08-06T12:23:30;6.90;;;2.87;;
3189;SDS011;1606;51.946;10.558;2023-08-06T12:25:59;6.27;;;2.53;;
3189;SDS011;1606;51.946;10.558;2023-08-06T12:28:27;6.50;;;2.40;;
3189;SDS011;1606;51.946;10.558;2023-08-06T12:30:55;5.87;;;2.23;;
3189;SDS011;1606;51.946;10.558;2023-08-06T12:33:24;6.20;;;2.87;;
3189;SDS011;1606;51.946;10.558;2023-08-06T12:35:52;6.77;;;2.83;;
3189;SDS011;1606;51.946;10.558;2023-08-06T12:38:21;9.23;;;2.80;;
3189;SDS011;1606;51.946;10.558;2023-08-06T12:40:49;7.93;;;2.87;;
3189;SDS011;1606;51.946;10.558;2023-08-06T12:43:17;10.40;;;2.97;;
3189;SDS011;1606;51.946;10.558;2023-08-06T12:45:45;6.10;;;2.77;;
3189;SDS011;1606;51.946;10.558;2023-08-06T12:48:13;6.27;;;2.47;;
3189;SDS011;1606;51.946;10.558;2023-08-06T12:50:41;6.93;;;3.13;;
3189;SDS011;1606;51.946;10.558;2023-08-06T12:53:09;6.37;;;2.50;;
3189;SDS011;1606;51.946;10.558;2023-08-06T12:55:37;6.00;;;2.20;;
3189;SDS011;1606;51.946;10.558;2023-08-06T12:58:06;8.47;;;3.50;;
3189;SDS011;1606;51.946;10.558;2023-08-06T13:00:34;7.07;;;2.70;;
3189;SDS011;1606;51.946;10.558;2023-08-06T13:03:02;7.87;;;3.13;;
3189;SDS011;1606;51.946;10.558;2023-08-06T13:05:30;6.53;;;2.50;;
3189;SDS011;1606;51.946;10.558;2023-08-06T13:08:00;7.87;;;3.03;;
3189;SDS011;1606;51.946;10.558;2023-08-06T13:10:28;6.90;;;3.23;;
3189;SDS011;1606;51.946;10.558;2023-08-06T13:12:57;7.70;;;3.37;;
3189;SDS011;1606;51.946;10.558;2023-08-06T13:15:25;9.93;;;3.60;;
3189;SDS011;1606;51.946;10.558;2023-08-06T13:17:53;8.90;;;2.73;;
3189;SDS011;1606;51.946;10.558;2023-08-06T13:20:21;6.50;;;2.50;;
3189;SDS011;1606;51.946;10.558;2023-08-06T13:22:50;6.93;;;2.80;;
3189;SDS011;1606;51.946;10.558;2023-08-06T13:25:21;8.03;;;2.77;;
3189;SDS011;1606;51.946;10.558;2023-08-06T13:27:50;6.27;;;2.13;;
3189;SDS011;1606;51.946;10.558;2023-08-06T13:30:17;6.77;;;2.43;;
3189;SDS011;1606;51.946;10.558;2023-08-06T13:32:45;7.60;;;2.50;;
3189;SDS011;1606;51.946;10.558;2023-08-06T13:35:14;7.23;;;2.53;;
3189;SDS011;1606;51.946;10.558;2023-08-06T13:37:42;6.80;;;3.13;;
3189;SDS011;1606;51.946;10.558;2023-08-06T13:40:10;7.20;;;2.37;;
3189;SDS011;1606;51.946;10.558;2023-08-06T13:42:39;6.30;;;2.47;;
3189;SDS011;1606;51.946;10.558;2023-08-06T13:45:07;5.77;;;2.47;;
3189;SDS011;1606;51.946;10.558;2023-08-06T13:47:36;7.67;;;2.30;;
3189;SDS011;1606;51.946;10.558;2023-08-06T13:50:04;6.33;;;2.50;;
3189;SDS011;1606;51.946;10.558;2023-08-06T13:52:33;6.20;;;2.60;;
3189;SDS011;1606;51.946;10.558;2023-08-06T13:55:01;7.00;;;2.80;;
3189;SDS011;1606;51.946;10.558;2023-08-06T13:57:30;10.30;;;3.13;;
3189;SDS011;1606;51.946;10.558;2023-08-06T13:59:59;7.70;;;2.97;;
3189;SDS011;1606;51.946;10.558;2023-08-06T14:02:27;6.53;;;2.60;;
3189;SDS011;1606;51.946;10.558;2023-08-06T14:04:55;7.60;;;2.90;;
3189;SDS011;1606;51.946;10.558;2023-08-06T14:07:23;6.93;;;3.03;;
3189;SDS011;1606;51.946;10.558;2023-08-06T14:09:51;7.83;;;3.10;;
3189;SDS011;1606;51.946;10.558;2023-08-06T14:12:19;7.73;;;3.10;;
3189;SDS011;1606;51.946;10.558;2023-08-06T14:14:47;7.00;;;3.20;;
3189;SDS011;1606;51.946;10.558;2023-08-06T14:17:16;6.90;;;3.30;;
3189;SDS011;1606;51.946;10.558;2023-08-06T14:19:44;9.50;;;2.67;;
3189;SDS011;1606;51.946;10.558;2023-08-06T14:22:12;7.57;;;2.77;;
3189;SDS011;1606;51.946;10.558;2023-08-06T14:24:40;7.30;;;3.20;;
3189;SDS011;1606;51.946;10.558;2023-08-06T14:27:08;6.77;;;3.20;;
3189;SDS011;1606;51.946;10.558;2023-08-06T14:29:36;7.07;;;3.50;;
3189;SDS011;1606;51.946;10.558;2023-08-06T14:32:04;6.63;;;3.20;;
3189;SDS011;1606;51.946;10.558;2023-08-06T14:34:34;8.17;;;3.43;;
3189;SDS011;1606;51.946;10.558;2023-08-06T14:37:02;7.33;;;2.87;;
3189;SDS011;1606;51.946;10.558;2023-08-06T14:39:30;6.73;;;3.40;;
3189;SDS011;1606;51.946;10.558;2023-08-06T14:41:58;8.97;;;3.00;;
3189;SDS011;1606;51.946;10.558;2023-08-06T14:44:26;7.90;;;3.07;;
3189;SDS011;1606;51.946;10.558;2023-08-06T14:46:54;7.03;;;3.37;;
3189;SDS011;1606;51.946;10.558;2023-08-06T14:49:22;7.60;;;2.77;;
3189;SDS011;1606;51.946;10.558;2023-08-06T14:51:52;8.07;;;3.30;;
3189;SDS011;1606;51.946;10.558;2023-08-06T14:54:20;7.17;;;3.73;;
3189;SDS011;1606;51.946;10.558;2023-08-06T14:56:47;6.70;;;3.17;;
3189;SDS011;1606;51.946;10.558;2023-08-06T14:59:15;8.93;;;3.20;;
3189;SDS011;1606;51.946;10.558;2023-08-06T15:01:43;10.10;;;3.80;;
3189;SDS011;1606;51.946;10.558;2023-08-06T15:04:11;7.80;;;3.50;;
3189;SDS011;1606;51.946;10.558;2023-08-06T15:06:39;7.60;;;3.50;;
3189;SDS011;1606;51.946;10.558;2023-08-06T15:09:08;7.03;;;3.10;;